sensor_id;sensor_type;location;lat;lon;timestamp;temperature;humidity
3564;DHT22;1796;52.388;13.096;2023-02-15T00:01:37;-0.40;99.90
3564;DHT22;1796;52.388;13.096;2023-02-15T00:04:04;-0.40;99.90
3564;DHT22;1796;52.388;13.096;2023-02-15T00:06:31;-0.40;99.90
3564;DHT22;1796;52.388;13.096;2023-02-15T00:08:58;-0.40;99.90
3564;DHT22;1796;52.388;13.096;2023-02-15T00:11:25;-0.40;99.90
3564;DHT22;1796;52.388;13.096;2023-02-15T00:14:10;-0.50;99.90
3564;DHT22;1796;52.388;13.096;2023-02-15T00:16:39;-0.50;99.90
3564;DHT22;1796;52.388;13.096;2023-02-15T00:19:06;-0.50;99.90
3564;DHT22;1796;52.388;13.096;2023-02-15T00:21:35;-0.50;99.90
3564;DHT22;1796;52.388;13.096;2023-02-15T00:24:05;-0.60;99.90
3564;DHT22;1796;52.388;13.096;2023-02-15T00:26:32;-0.40;99.90
3564;DHT22;1796;52.388;13.096;2023-02-15T00:29:00;-0.40;99.90
3564;DHT22;1796;52.388;13.096;2023-02-15T00:31:28;-0.50;99.90
3564;DHT22;1796;52.388;13.096;2023-02-15T00:34:01;-0.50;99.90
3564;DHT22;1796;52.388;13.096;2023-02-15T00:36:28;-0.60;99.90
3564;DHT22;1796;52.388;13.096;2023-02-15T00:38:55;-0.60;99.90
3564;DHT22;1796;52.388;13.096;2023-02-15T00:41:22;-0.70;99.90
3564;DHT22;1796;52.388;13.096;2023-02-15T00:43:49;-0.80;99.90
3564;DHT22;1796;52.388;13.096;2023-02-15T00:46:16;-0.80;99.90
3564;DHT22;1796;52.388;13.096;2023-02-15T00:48:43;-0.80;99.90
3564;DHT22;1796;52.388;13.096;2023-02-15T00:51:11;-0.70;99.90
3564;DHT22;1796;52.388;13.096;2023-02-15T00:53:38;-0.80;99.90
3564;DHT22;1796;52.388;13.096;2023-02-15T00:56:04;-0.70;99.90
3564;DHT22;1796;52.388;13.096;2023-02-15T00:58:32;-0.70;99.90
3564;DHT22;1796;52.388;13.096;2023-02-15T01:01:03;-0.70;99.90
3564;DHT22;1796;52.388;13.096;2023-02-15T01:03:31;-0.70;99.90
3564;DHT22;1796;52.388;13.096;2023-02-15T01:05:58;-0.70;99.90
3564;DHT22;1796;52.388;13.096;2023-02-15T01:08:26;-0.70;99.90
3564;DHT22;1796;52.388;13.096;2023-02-15T01:10:53;-0.80;99.90
3564;DHT22;1796;52.388;13.096;2023-02-15T01:13:20;-0.80;99.90
3564;DHT22;1796;52.388;13.096;2023-02-15T01:15:52;-0.90;99.90
3564;DHT22;1796;52.388;13.096;2023-02-15T01:18:20;-0.90;99.90
3564;DHT22;1796;52.388;13.096;2023-02-15T01:20:46;-1.00;99.90
3564;DHT22;1796;52.388;13.096;2023-02-15T01:23:13;-1.00;99.90
3564;DHT22;1796;52.388;13.096;2023-02-15T01:25:42;-0.80;99.90
3564;DHT22;1796;52.388;13.096;2023-02-15T01:28:09;-0.80;99.90
3564;DHT22;1796;52.388;13.096;2023-02-15T01:30:35;-0.80;99.90
3564;DHT22;1796;52.388;13.096;2023-02-15T01:33:02;-0.80;99.90
3564;DHT22;1796;52.388;13.096;2023-02-15T01:35:29;-0.90;99.90
3564;DHT22;1796;52.388;13.096;2023-02-15T01:37:57;-1.00;99.90
3564;DHT22;1796;52.388;13.096;2023-02-15T01:40:24;-1.00;99.90
3564;DHT22;1796;52.388;13.096;2023-02-15T01:42:54;-1.10;99.90
3564;DHT22;1796;52.388;13.096;2023-02-15T01:45:24;-1.00;99.90
3564;DHT22;1796;52.388;13.096;2023-02-15T01:47:54;-1.10;99.90
3564;DHT22;1796;52.388;13.096;2023-02-15T01:50:27;-1.10;99.90
3564;DHT22;1796;52.388;13.096;2023-02-15T01:52:57;-0.90;99.90
3564;DHT22;1796;52.388;13.096;2023-02-15T01:55:30;-0.90;99.90
3564;DHT22;1796;52.388;13.096;2023-02-15T01:58:00;-0.90;99.90
3564;DHT22;1796;52.388;13.096;2023-02-15T02:00:27;-1.00;99.90
3564;DHT22;1796;52.388;13.096;2023-02-15T02:02:55;-1.10;99.90
3564;DHT22;1796;52.388;13.096;2023-02-15T02:05:23;-1.20;99.90
3564;DHT22;1796;52.388;13.096;2023-02-15T02:07:52;-1.30;99.90
3564;DHT22;1796;52.388;13.096;2023-02-15T02:10:21;-1.40;99.90
3564;DHT22;1796;52.388;13.096;2023-02-15T02:12:50;-1.40;99.90
3564;DHT22;1796;52.388;13.096;2023-02-15T02:15:23;-1.40;99.90
3564;DHT22;1796;52.388;13.096;2023-02-15T02:18:09;-1.30;99.90
3564;DHT22;1796;52.388;13.096;2023-02-15T02:21:03;-1.30;99.90
3564;DHT22;1796;52.388;13.096;2023-02-15T02:23:42;-1.30;99.90
3564;DHT22;1796;52.388;13.096;2023-02-15T02:26:39;-1.20;99.90
3564;DHT22;1796;52.388;13.096;2023-02-15T02:32:58;-1.00;99.90
3564;DHT22;1796;52.388;13.096;2023-02-15T02:35:35;-1.00;99.90
3564;DHT22;1796;52.388;13.096;2023-02-15T02:38:10;-1.10;99.90
3564;DHT22;1796;52.388;13.096;2023-02-15T02:40:46;-1.20;99.90
3564;DHT22;1796;52.388;13.096;2023-02-15T02:43:20;-1.30;99.90
3564;DHT22;1796;52.388;13.096;2023-02-15T02:45:50;-1.40;99.90
3564;DHT22;1796;52.388;13.096;2023-02-15T02:48:22;-1.40;99.90
3564;DHT22;1796;52.388;13.096;2023-02-15T02:50:51;-1.50;99.90
3564;DHT22;1796;52.388;13.096;2023-02-15T02:53:17;-1.40;99.90
3564;DHT22;1796;52.388;13.096;2023-02-15T02:55:47;-1.40;99.90
3564;DHT22;1796;52.388;13.096;2023-02-15T02:58:20;-1.50;99.90
3564;DHT22;1796;52.388;13.096;2023-02-15T03:00:50;-1.50;99.90
3564;DHT22;1796;52.388;13.096;2023-02-15T03:03:25;-1.60;99.90
3564;DHT22;1796;52.388;13.096;2023-02-15T03:05:56;-1.60;99.90
3564;DHT22;1796;52.388;13.096;2023-02-15T03:08:26;-1.60;99.90
3564;DHT22;1796;52.388;13.096;2023-02-15T03:10:58;-1.60;99.90
3564;DHT22;1796;52.388;13.096;2023-02-15T03:13:26;-1.50;99.90
3564;DHT22;1796;52.388;13.096;2023-02-15T03:15:54;-1.40;99.90
3564;DHT22;1796;52.388;13.096;2023-02-15T03:18:44;-1.40;99.90
3564;DHT22;1796;52.388;13.096;2023-02-15T03:21:19;-1.50;99.90
3564;DHT22;1796;52.388;13.096;2023-02-15T03:23:50;-1.50;99.90
3564;DHT22;1796;52.388;13.096;2023-02-15T03:26:20;-1.60;99.90
3564;DHT22;1796;52.388;13.096;2023-02-15T03:28:50;-1.60;99.90
3564;DHT22;1796;52.388;13.096;2023-02-15T03:31:18;-1.80;99.90
3564;DHT22;1796;52.388;13.096;2023-02-15T03:33:52;-1.80;99.90
3564;DHT22;1796;52.388;13.096;2023-02-15T03:36:23;-1.80;99.90
3564;DHT22;1796;52.388;13.096;2023-02-15T03:38:54;-1.90;99.90
3564;DHT22;1796;52.388;13.096;2023-02-15T03:41:26;-2.00;99.90
3564;DHT22;1796;52.388;13.096;2023-02-15T03:43:56;-1.90;99.90
3564;DHT22;1796;52.388;13.096;2023-02-15T03:46:30;-2.00;99.90
3564;DHT22;1796;52.388;13.096;2023-02-15T03:49:02;-2.00;99.90
3564;DHT22;1796;52.388;13.096;2023-02-15T03:51:35;-2.00;99.90
3564;DHT22;1796;52.388;13.096;2023-02-15T03:54:07;-2.00;99.90
3564;DHT22;1796;52.388;13.096;2023-02-15T03:56:35;-2.10;99.90
3564;DHT22;1796;52.388;13.096;2023-02-15T03:59:03;-2.10;99.90
3564;DHT22;1796;52.388;13.096;2023-02-15T04:02:01;-2.20;99.90
3564;DHT22;1796;52.388;13.096;2023-02-15T04:04:35;-2.20;99.90
3564;DHT22;1796;52.388;13.096;2023-02-15T04:07:04;-2.30;99.90
3564;DHT22;1796;52.388;13.096;2023-02-15T04:09:31;-2.30;99.90
3564;DHT22;1796;52.388;13.096;2023-02-15T04:12:15;-2.30;99.90
3564;DHT22;1796;52.388;13.096;2023-02-15T04:14:42;-2.30;99.90
3564;DHT22;1796;52.388;13.096;2023-02-15T04:17:27;-2.20;99.90
3564;DHT22;1796;52.388;13.096;2023-02-15T04:19:55;-2.20;99.90
3564;DHT22;1796;52.388;13.096;2023-02-15T04:22:39;-2.20;99.90
3564;DHT22;1796;52.388;13.096;2023-02-15T04:25:24;-2.10;99.90
3564;DHT22;1796;52.388;13.096;2023-02-15T04:27:52;-2.10;99.90
3564;DHT22;1796;52.388;13.096;2023-02-15T04:30:22;-2.10;99.90
3564;DHT22;1796;52.388;13.096;2023-02-15T04:32:50;-2.00;99.90
3564;DHT22;1796;52.388;13.096;2023-02-15T04:35:18;-2.00;99.90
3564;DHT22;1796;52.388;13.096;2023-02-15T04:37:45;-1.90;99.90
3564;DHT22;1796;52.388;13.096;2023-02-15T04:40:13;-1.90;99.90
3564;DHT22;1796;52.388;13.096;2023-02-15T04:42:41;-1.80;99.90
3564;DHT22;1796;52.388;13.096;2023-02-15T04:45:08;-1.70;99.90
3564;DHT22;1796;52.388;13.096;2023-02-15T04:47:35;-1.60;99.90
3564;DHT22;1796;52.388;13.096;2023-02-15T04:50:02;-1.50;99.90
3564;DHT22;1796;52.388;13.096;2023-02-15T04:52:30;-1.40;99.90
3564;DHT22;1796;52.388;13.096;2023-02-15T04:54:57;-1.40;99.90
3564;DHT22;1796;52.388;13.096;2023-02-15T04:57:24;-1.40;99.90
3564;DHT22;1796;52.388;13.096;2023-02-15T04:59:51;-1.40;99.90
3564;DHT22;1796;52.388;13.096;2023-02-15T05:02:18;-1.30;99.90
3564;DHT22;1796;52.388;13.096;2023-02-15T05:04:44;-1.30;99.90
3564;DHT22;1796;52.388;13.096;2023-02-15T05:07:11;-1.20;99.90
3564;DHT22;1796;52.388;13.096;2023-02-15T05:09:39;-1.20;99.90
3564;DHT22;1796;52.388;13.096;2023-02-15T05:12:06;-1.10;99.90
3564;DHT22;1796;52.388;13.096;2023-02-15T05:14:33;-1.00;99.90
3564;DHT22;1796;52.388;13.096;2023-02-15T05:17:00;-1.10;99.90
3564;DHT22;1796;52.388;13.096;2023-02-15T05:19:29;-1.10;99.90
3564;DHT22;1796;52.388;13.096;2023-02-15T05:21:55;-1.00;99.90
3564;DHT22;1796;52.388;13.096;2023-02-15T05:24:22;-1.00;99.90
3564;DHT22;1796;52.388;13.096;2023-02-15T05:27:10;-0.90;99.90
3564;DHT22;1796;52.388;13.096;2023-02-15T05:29:55;-1.00;99.90
3564;DHT22;1796;52.388;13.096;2023-02-15T05:32:21;-1.00;99.90
3564;DHT22;1796;52.388;13.096;2023-02-15T05:34:48;-1.10;99.90
3564;DHT22;1796;52.388;13.096;2023-02-15T05:37:15;-1.10;99.90
3564;DHT22;1796;52.388;13.096;2023-02-15T05:39:42;-1.10;99.90
3564;DHT22;1796;52.388;13.096;2023-02-15T05:42:10;-1.10;99.90
3564;DHT22;1796;52.388;13.096;2023-02-15T05:44:37;-1.20;99.90
3564;DHT22;1796;52.388;13.096;2023-02-15T05:47:04;-1.20;99.90
3564;DHT22;1796;52.388;13.096;2023-02-15T05:49:32;-1.20;99.90
3564;DHT22;1796;52.388;13.096;2023-02-15T05:51:59;-1.20;99.90
3564;DHT22;1796;52.388;13.096;2023-02-15T05:54:26;-1.20;99.90
3564;DHT22;1796;52.388;13.096;2023-02-15T05:56:54;-1.10;99.90
3564;DHT22;1796;52.388;13.096;2023-02-15T05:59:22;-1.20;99.90
3564;DHT22;1796;52.388;13.096;2023-02-15T06:01:49;-1.20;99.90
3564;DHT22;1796;52.388;13.096;2023-02-15T06:04:16;-1.10;99.90
3564;DHT22;1796;52.388;13.096;2023-02-15T06:06:43;-1.20;99.90
3564;DHT22;1796;52.388;13.096;2023-02-15T06:09:10;-1.20;99.90
3564;DHT22;1796;52.388;13.096;2023-02-15T06:11:38;-1.20;99.90
3564;DHT22;1796;52.388;13.096;2023-02-15T06:14:05;-1.20;99.90
3564;DHT22;1796;52.388;13.096;2023-02-15T06:16:33;-1.20;99.90
3564;DHT22;1796;52.388;13.096;2023-02-15T06:19:00;-1.10;99.90
3564;DHT22;1796;52.388;13.096;2023-02-15T06:21:27;-1.20;99.90
3564;DHT22;1796;52.388;13.096;2023-02-15T06:23:54;-1.20;99.90
3564;DHT22;1796;52.388;13.096;2023-02-15T06:26:21;-1.20;99.90
3564;DHT22;1796;52.388;13.096;2023-02-15T06:28:48;-1.20;99.90
3564;DHT22;1796;52.388;13.096;2023-02-15T06:31:15;-1.20;99.90
3564;DHT22;1796;52.388;13.096;2023-02-15T06:33:43;-1.10;99.90
3564;DHT22;1796;52.388;13.096;2023-02-15T06:36:10;-1.10;99.90
3564;DHT22;1796;52.388;13.096;2023-02-15T06:38:38;-1.20;99.90
3564;DHT22;1796;52.388;13.096;2023-02-15T06:41:05;-1.20;99.90
3564;DHT22;1796;52.388;13.096;2023-02-15T06:43:31;-1.20;99.90
3564;DHT22;1796;52.388;13.096;2023-02-15T06:45:59;-1.20;99.90
3564;DHT22;1796;52.388;13.096;2023-02-15T06:48:26;-1.20;99.90
3564;DHT22;1796;52.388;13.096;2023-02-15T06:50:54;-1.10;99.90
3564;DHT22;1796;52.388;13.096;2023-02-15T06:53:21;-1.00;99.90
3564;DHT22;1796;52.388;13.096;2023-02-15T06:55:48;-1.00;99.90
3564;DHT22;1796;52.388;13.096;2023-02-15T06:58:15;-1.10;99.90
3564;DHT22;1796;52.388;13.096;2023-02-15T07:00:42;-1.10;99.90
3564;DHT22;1796;52.388;13.096;2023-02-15T07:03:08;-1.00;99.90
3564;DHT22;1796;52.388;13.096;2023-02-15T07:05:35;-1.10;99.90
3564;DHT22;1796;52.388;13.096;2023-02-15T07:08:03;-1.00;99.90
3564;DHT22;1796;52.388;13.096;2023-02-15T07:10:30;-0.90;99.90
3564;DHT22;1796;52.388;13.096;2023-02-15T07:12:57;-0.90;99.90
3564;DHT22;1796;52.388;13.096;2023-02-15T07:15:23;-0.80;99.90
3564;DHT22;1796;52.388;13.096;2023-02-15T07:17:50;-0.70;99.90
3564;DHT22;1796;52.388;13.096;2023-02-15T07:20:18;-0.70;99.90
3564;DHT22;1796;52.388;13.096;2023-02-15T07:22:46;-0.70;99.90
3564;DHT22;1796;52.388;13.096;2023-02-15T07:25:14;-0.70;99.90
3564;DHT22;1796;52.388;13.096;2023-02-15T07:27:41;-0.60;99.90
3564;DHT22;1796;52.388;13.096;2023-02-15T07:30:11;-0.70;99.90
3564;DHT22;1796;52.388;13.096;2023-02-15T07:32:38;-0.60;99.90
3564;DHT22;1796;52.388;13.096;2023-02-15T07:35:25;-0.60;99.90
3564;DHT22;1796;52.388;13.096;2023-02-15T07:37:53;-0.70;99.90
3564;DHT22;1796;52.388;13.096;2023-02-15T07:40:21;-0.70;99.90
3564;DHT22;1796;52.388;13.096;2023-02-15T07:42:49;-0.60;99.90
3564;DHT22;1796;52.388;13.096;2023-02-15T07:45:17;-0.50;99.90
3564;DHT22;1796;52.388;13.096;2023-02-15T07:47:44;-0.40;99.90
3564;DHT22;1796;52.388;13.096;2023-02-15T07:50:10;-0.40;99.90
3564;DHT22;1796;52.388;13.096;2023-02-15T07:52:37;-0.40;99.90
3564;DHT22;1796;52.388;13.096;2023-02-15T07:55:04;-0.40;99.90
3564;DHT22;1796;52.388;13.096;2023-02-15T07:57:33;-0.40;99.90
3564;DHT22;1796;52.388;13.096;2023-02-15T07:59:59;-0.30;99.90
3564;DHT22;1796;52.388;13.096;2023-02-15T08:02:26;-0.20;99.90
3564;DHT22;1796;52.388;13.096;2023-02-15T08:04:54;-0.20;99.90
3564;DHT22;1796;52.388;13.096;2023-02-15T08:07:21;-0.30;99.90
3564;DHT22;1796;52.388;13.096;2023-02-15T08:09:48;-0.20;99.90
3564;DHT22;1796;52.388;13.096;2023-02-15T08:12:14;-0.20;99.90
3564;DHT22;1796;52.388;13.096;2023-02-15T08:14:43;0.00;99.90
3564;DHT22;1796;52.388;13.096;2023-02-15T08:17:09;0.00;99.90
3564;DHT22;1796;52.388;13.096;2023-02-15T08:19:37;0.10;99.90
3564;DHT22;1796;52.388;13.096;2023-02-15T08:22:05;0.10;99.90
3564;DHT22;1796;52.388;13.096;2023-02-15T08:24:34;0.10;99.90
3564;DHT22;1796;52.388;13.096;2023-02-15T08:27:02;0.10;99.90
3564;DHT22;1796;52.388;13.096;2023-02-15T08:29:30;-0.10;99.90
3564;DHT22;1796;52.388;13.096;2023-02-15T08:32:00;0.00;99.90
3564;DHT22;1796;52.388;13.096;2023-02-15T08:34:32;0.10;99.90
3564;DHT22;1796;52.388;13.096;2023-02-15T08:36:59;0.10;99.90
3564;DHT22;1796;52.388;13.096;2023-02-15T08:39:26;0.00;99.90
3564;DHT22;1796;52.388;13.096;2023-02-15T08:41:54;0.00;99.90
3564;DHT22;1796;52.388;13.096;2023-02-15T08:44:21;0.10;99.90
3564;DHT22;1796;52.388;13.096;2023-02-15T08:46:49;0.30;99.90
3564;DHT22;1796;52.388;13.096;2023-02-15T08:49:19;0.30;99.90
3564;DHT22;1796;52.388;13.096;2023-02-15T08:51:47;0.30;99.90
3564;DHT22;1796;52.388;13.096;2023-02-15T08:54:16;0.40;99.90
3564;DHT22;1796;52.388;13.096;2023-02-15T08:56:44;0.40;99.90
3564;DHT22;1796;52.388;13.096;2023-02-15T08:59:13;0.60;99.90
3564;DHT22;1796;52.388;13.096;2023-02-15T09:01:41;0.70;99.90
3564;DHT22;1796;52.388;13.096;2023-02-15T09:04:09;0.70;99.90
3564;DHT22;1796;52.388;13.096;2023-02-15T09:06:38;0.70;99.90
3564;DHT22;1796;52.388;13.096;2023-02-15T09:09:05;0.70;99.90
3564;DHT22;1796;52.388;13.096;2023-02-15T09:11:34;0.80;99.90
3564;DHT22;1796;52.388;13.096;2023-02-15T09:14:04;0.90;99.90
3564;DHT22;1796;52.388;13.096;2023-02-15T09:16:33;0.80;99.90
3564;DHT22;1796;52.388;13.096;2023-02-15T09:19:00;0.90;99.90
3564;DHT22;1796;52.388;13.096;2023-02-15T09:21:28;0.90;99.90
3564;DHT22;1796;52.388;13.096;2023-02-15T09:23:59;0.90;99.90
3564;DHT22;1796;52.388;13.096;2023-02-15T09:26:27;0.90;99.90
3564;DHT22;1796;52.388;13.096;2023-02-15T09:28:56;0.90;99.90
3564;DHT22;1796;52.388;13.096;2023-02-15T09:31:25;1.00;99.90
3564;DHT22;1796;52.388;13.096;2023-02-15T09:33:52;1.20;99.90
3564;DHT22;1796;52.388;13.096;2023-02-15T09:36:21;1.40;99.90
3564;DHT22;1796;52.388;13.096;2023-02-15T09:38:54;1.20;99.90
3564;DHT22;1796;52.388;13.096;2023-02-15T09:41:45;1.20;99.90
3564;DHT22;1796;52.388;13.096;2023-02-15T09:44:19;1.50;99.90
3564;DHT22;1796;52.388;13.096;2023-02-15T09:47:03;1.50;99.90
3564;DHT22;1796;52.388;13.096;2023-02-15T09:49:40;1.60;99.90
3564;DHT22;1796;52.388;13.096;2023-02-15T09:52:30;1.60;99.90
3564;DHT22;1796;52.388;13.096;2023-02-15T09:55:22;1.80;99.90
3564;DHT22;1796;52.388;13.096;2023-02-15T09:57:56;1.90;99.90
3564;DHT22;1796;52.388;13.096;2023-02-15T10:00:30;1.90;99.90
3564;DHT22;1796;52.388;13.096;2023-02-15T10:03:15;2.00;99.90
3564;DHT22;1796;52.388;13.096;2023-02-15T10:05:55;1.90;99.90
3564;DHT22;1796;52.388;13.096;2023-02-15T10:08:41;2.00;99.90
3564;DHT22;1796;52.388;13.096;2023-02-15T10:11:17;2.00;99.90
3564;DHT22;1796;52.388;13.096;2023-02-15T10:14:17;2.10;99.90
3564;DHT22;1796;52.388;13.096;2023-02-15T10:16:54;2.20;99.90
3564;DHT22;1796;52.388;13.096;2023-02-15T10:19:29;2.10;99.90
3564;DHT22;1796;52.388;13.096;2023-02-15T10:22:05;2.30;99.90
3564;DHT22;1796;52.388;13.096;2023-02-15T10:24:48;2.50;99.90
3564;DHT22;1796;52.388;13.096;2023-02-15T10:27:20;2.50;99.90
3564;DHT22;1796;52.388;13.096;2023-02-15T10:29:57;2.60;99.90
3564;DHT22;1796;52.388;13.096;2023-02-15T10:32:32;2.50;99.90
3564;DHT22;1796;52.388;13.096;2023-02-15T10:35:10;2.60;99.90
3564;DHT22;1796;52.388;13.096;2023-02-15T10:38:05;2.60;99.90
3564;DHT22;1796;52.388;13.096;2023-02-15T10:40:41;2.60;99.90
3564;DHT22;1796;52.388;13.096;2023-02-15T10:43:49;2.60;99.90
3564;DHT22;1796;52.388;13.096;2023-02-15T10:49:26;2.90;99.90
3564;DHT22;1796;52.388;13.096;2023-02-15T10:52:07;3.00;99.90
3564;DHT22;1796;52.388;13.096;2023-02-15T10:54:39;3.10;99.90
3564;DHT22;1796;52.388;13.096;2023-02-15T10:57:15;3.10;99.90
3564;DHT22;1796;52.388;13.096;2023-02-15T10:59:56;3.40;99.90
3564;DHT22;1796;52.388;13.096;2023-02-15T11:02:35;3.70;99.90
3564;DHT22;1796;52.388;13.096;2023-02-15T11:05:24;3.80;99.90
3564;DHT22;1796;52.388;13.096;2023-02-15T11:07:55;3.90;99.90
3564;DHT22;1796;52.388;13.096;2023-02-15T11:10:29;3.90;99.90
3564;DHT22;1796;52.388;13.096;2023-02-15T11:12:57;3.90;99.90
3564;DHT22;1796;52.388;13.096;2023-02-15T11:15:32;3.70;99.90
3564;DHT22;1796;52.388;13.096;2023-02-15T11:18:09;3.50;99.90
3564;DHT22;1796;52.388;13.096;2023-02-15T11:20:42;3.30;99.90
3564;DHT22;1796;52.388;13.096;2023-02-15T11:23:14;3.30;99.90
3564;DHT22;1796;52.388;13.096;2023-02-15T11:25:46;3.30;99.90
3564;DHT22;1796;52.388;13.096;2023-02-15T11:28:18;3.20;99.90
3564;DHT22;1796;52.388;13.096;2023-02-15T11:30:48;3.30;99.90
3564;DHT22;1796;52.388;13.096;2023-02-15T11:33:21;3.40;99.90
3564;DHT22;1796;52.388;13.096;2023-02-15T11:35:52;3.50;99.90
3564;DHT22;1796;52.388;13.096;2023-02-15T11:38:22;3.60;99.90
3564;DHT22;1796;52.388;13.096;2023-02-15T11:40:54;3.60;99.90
3564;DHT22;1796;52.388;13.096;2023-02-15T11:43:28;3.70;99.90
3564;DHT22;1796;52.388;13.096;2023-02-15T11:45:57;3.80;99.90
3564;DHT22;1796;52.388;13.096;2023-02-15T11:48:26;3.90;99.90
3564;DHT22;1796;52.388;13.096;2023-02-15T11:50:55;4.10;99.90
3564;DHT22;1796;52.388;13.096;2023-02-15T11:53:23;4.10;99.90
3564;DHT22;1796;52.388;13.096;2023-02-15T11:55:52;4.30;99.90
3564;DHT22;1796;52.388;13.096;2023-02-15T11:58:28;4.30;99.90
3564;DHT22;1796;52.388;13.096;2023-02-15T12:01:00;4.50;99.90
3564;DHT22;1796;52.388;13.096;2023-02-15T12:03:37;4.70;99.90
3564;DHT22;1796;52.388;13.096;2023-02-15T12:06:18;4.80;99.90
3564;DHT22;1796;52.388;13.096;2023-02-15T12:08:52;4.90;99.90
3564;DHT22;1796;52.388;13.096;2023-02-15T12:11:25;5.00;99.90
3564;DHT22;1796;52.388;13.096;2023-02-15T12:13:57;5.30;99.90
3564;DHT22;1796;52.388;13.096;2023-02-15T12:16:26;5.30;99.90
3564;DHT22;1796;52.388;13.096;2023-02-15T12:18:56;5.40;99.90
3564;DHT22;1796;52.388;13.096;2023-02-15T12:21:26;5.40;99.90
3564;DHT22;1796;52.388;13.096;2023-02-15T12:23:57;5.60;99.90
3564;DHT22;1796;52.388;13.096;2023-02-15T12:26:26;5.70;99.90
3564;DHT22;1796;52.388;13.096;2023-02-15T12:28:54;5.90;99.90
3564;DHT22;1796;52.388;13.096;2023-02-15T12:31:26;6.00;99.90
3564;DHT22;1796;52.388;13.096;2023-02-15T12:33:57;6.10;99.90
3564;DHT22;1796;52.388;13.096;2023-02-15T12:36:30;6.20;99.90
3564;DHT22;1796;52.388;13.096;2023-02-15T12:39:16;6.30;99.90
3564;DHT22;1796;52.388;13.096;2023-02-15T12:41:46;6.30;99.90
3564;DHT22;1796;52.388;13.096;2023-02-15T12:44:16;6.50;99.90
3564;DHT22;1796;52.388;13.096;2023-02-15T12:46:56;6.60;99.90
3564;DHT22;1796;52.388;13.096;2023-02-15T12:49:25;6.90;99.90
3564;DHT22;1796;52.388;13.096;2023-02-15T12:51:54;7.00;99.90
3564;DHT22;1796;52.388;13.096;2023-02-15T12:54:33;7.00;99.90
3564;DHT22;1796;52.388;13.096;2023-02-15T12:57:19;7.20;99.90
3564;DHT22;1796;52.388;13.096;2023-02-15T12:59:52;7.30;99.90
3564;DHT22;1796;52.388;13.096;2023-02-15T13:02:24;7.30;99.90
3564;DHT22;1796;52.388;13.096;2023-02-15T13:04:54;7.40;99.90
3564;DHT22;1796;52.388;13.096;2023-02-15T13:07:22;7.50;99.90
3564;DHT22;1796;52.388;13.096;2023-02-15T13:09:50;7.60;99.90
3564;DHT22;1796;52.388;13.096;2023-02-15T13:12:22;7.70;99.90
3564;DHT22;1796;52.388;13.096;2023-02-15T13:14:53;7.80;99.90
3564;DHT22;1796;52.388;13.096;2023-02-15T13:17:24;7.90;99.90
3564;DHT22;1796;52.388;13.096;2023-02-15T13:19:59;8.10;99.90
3564;DHT22;1796;52.388;13.096;2023-02-15T13:22:33;8.00;99.90
3564;DHT22;1796;52.388;13.096;2023-02-15T13:25:09;8.10;99.90
3564;DHT22;1796;52.388;13.096;2023-02-15T13:27:39;8.30;99.90
3564;DHT22;1796;52.388;13.096;2023-02-15T13:30:20;8.30;99.90
3564;DHT22;1796;52.388;13.096;2023-02-15T13:32:50;8.50;99.90
3564;DHT22;1796;52.388;13.096;2023-02-15T13:35:20;8.50;99.90
3564;DHT22;1796;52.388;13.096;2023-02-15T13:38:06;8.70;99.90
3564;DHT22;1796;52.388;13.096;2023-02-15T13:40:41;8.90;99.90
3564;DHT22;1796;52.388;13.096;2023-02-15T13:43:20;8.80;99.90
3564;DHT22;1796;52.388;13.096;2023-02-15T13:46:07;8.90;99.90
3564;DHT22;1796;52.388;13.096;2023-02-15T13:48:44;8.90;99.90
3564;DHT22;1796;52.388;13.096;2023-02-15T13:51:19;9.00;99.90
3564;DHT22;1796;52.388;13.096;2023-02-15T13:54:16;9.10;99.90
3564;DHT22;1796;52.388;13.096;2023-02-15T13:56:56;9.20;99.90
3564;DHT22;1796;52.388;13.096;2023-02-15T13:59:37;9.20;99.90
3564;DHT22;1796;52.388;13.096;2023-02-15T14:05:25;9.20;99.90
3564;DHT22;1796;52.388;13.096;2023-02-15T14:08:04;9.20;99.90
3564;DHT22;1796;52.388;13.096;2023-02-15T14:10:43;9.20;99.90
3564;DHT22;1796;52.388;13.096;2023-02-15T14:16:04;9.20;99.90
3564;DHT22;1796;52.388;13.096;2023-02-15T14:18:38;9.20;99.90
3564;DHT22;1796;52.388;13.096;2023-02-15T14:21:10;9.10;99.90
3564;DHT22;1796;52.388;13.096;2023-02-15T14:23:53;9.10;99.90
3564;DHT22;1796;52.388;13.096;2023-02-15T14:26:33;9.10;99.90
3564;DHT22;1796;52.388;13.096;2023-02-15T14:29:07;9.20;99.90
3564;DHT22;1796;52.388;13.096;2023-02-15T14:31:41;9.30;99.90
3564;DHT22;1796;52.388;13.096;2023-02-15T14:34:19;9.20;99.90
3564;DHT22;1796;52.388;13.096;2023-02-15T14:36:47;9.10;99.90
3564;DHT22;1796;52.388;13.096;2023-02-15T14:39:25;9.10;99.90
3564;DHT22;1796;52.388;13.096;2023-02-15T14:42:18;9.20;99.90
3564;DHT22;1796;52.388;13.096;2023-02-15T14:44:50;9.10;99.90
3564;DHT22;1796;52.388;13.096;2023-02-15T14:47:21;9.10;99.90
3564;DHT22;1796;52.388;13.096;2023-02-15T14:49:50;9.00;99.90
3564;DHT22;1796;52.388;13.096;2023-02-15T14:52:17;8.90;99.90
3564;DHT22;1796;52.388;13.096;2023-02-15T14:54:58;8.90;99.90
3564;DHT22;1796;52.388;13.096;2023-02-15T14:57:33;8.80;99.90
3564;DHT22;1796;52.388;13.096;2023-02-15T15:00:00;8.80;99.90
3564;DHT22;1796;52.388;13.096;2023-02-15T15:02:43;8.70;99.90
3564;DHT22;1796;52.388;13.096;2023-02-15T15:05:17;8.70;99.90
3564;DHT22;1796;52.388;13.096;2023-02-15T15:07:47;8.70;99.90
3564;DHT22;1796;52.388;13.096;2023-02-15T15:10:35;8.60;99.90
3564;DHT22;1796;52.388;13.096;2023-02-15T15:16:29;8.60;99.90
3564;DHT22;1796;52.388;13.096;2023-02-15T15:18:57;8.50;99.90
3564;DHT22;1796;52.388;13.096;2023-02-15T15:21:56;8.50;99.90
3564;DHT22;1796;52.388;13.096;2023-02-15T15:24:51;8.40;99.90
3564;DHT22;1796;52.388;13.096;2023-02-15T15:27:48;8.40;99.90
3564;DHT22;1796;52.388;13.096;2023-02-15T15:36:51;8.30;99.90
3564;DHT22;1796;52.388;13.096;2023-02-15T15:42:32;8.10;99.90
3564;DHT22;1796;52.388;13.096;2023-02-15T15:45:36;8.00;99.90
3564;DHT22;1796;52.388;13.096;2023-02-15T15:48:32;7.90;99.90
3564;DHT22;1796;52.388;13.096;2023-02-15T15:51:02;7.80;99.90
3564;DHT22;1796;52.388;13.096;2023-02-15T15:53:34;7.70;99.90
3564;DHT22;1796;52.388;13.096;2023-02-15T15:56:06;7.60;99.90
3564;DHT22;1796;52.388;13.096;2023-02-15T15:58:37;7.50;99.90
3564;DHT22;1796;52.388;13.096;2023-02-15T16:01:10;7.40;99.90
3564;DHT22;1796;52.388;13.096;2023-02-15T16:03:47;7.40;99.90
3564;DHT22;1796;52.388;13.096;2023-02-15T16:06:25;7.40;99.90
3564;DHT22;1796;52.388;13.096;2023-02-15T16:08:52;7.30;99.90
3564;DHT22;1796;52.388;13.096;2023-02-15T16:11:22;7.30;99.90
3564;DHT22;1796;52.388;13.096;2023-02-15T16:13:50;7.20;99.90
3564;DHT22;1796;52.388;13.096;2023-02-15T16:16:23;7.50;99.90
3564;DHT22;1796;52.388;13.096;2023-02-15T16:18:51;7.40;99.90
3564;DHT22;1796;52.388;13.096;2023-02-15T16:21:20;7.20;99.90
3564;DHT22;1796;52.388;13.096;2023-02-15T16:23:59;7.00;99.90
3564;DHT22;1796;52.388;13.096;2023-02-15T16:26:57;7.00;99.90
3564;DHT22;1796;52.388;13.096;2023-02-15T16:29:28;6.90;99.90
3564;DHT22;1796;52.388;13.096;2023-02-15T16:32:02;6.70;99.90
3564;DHT22;1796;52.388;13.096;2023-02-15T16:34:29;6.60;99.90
3564;DHT22;1796;52.388;13.096;2023-02-15T16:37:15;6.40;99.90
3564;DHT22;1796;52.388;13.096;2023-02-15T16:39:44;6.20;99.90
3564;DHT22;1796;52.388;13.096;2023-02-15T16:42:14;6.00;99.90
3564;DHT22;1796;52.388;13.096;2023-02-15T16:44:43;5.90;99.90
3564;DHT22;1796;52.388;13.096;2023-02-15T16:47:15;5.70;99.90
3564;DHT22;1796;52.388;13.096;2023-02-15T16:49:45;5.60;99.90
3564;DHT22;1796;52.388;13.096;2023-02-15T16:52:15;5.50;99.90